Time;durP1;ratioP1;P1;durP2;ratioP2;P2;SDS_P1;SDS_P2;PMS_P1;PMS_P2;Temp;Humidity;BMP_temperature;BMP_pressure;BME280_temperature;BME280_humidity;BME280_pressure;Samples;Min_cycle;Max_cycle;Signal;HPM_P1;HPM_P2
2022/01/06 00:00:47;;;;;;;31.17;19.07;;;;;;;9.12;55.09;94259.13;5010625;28;20433;-60
2022/01/06 00:03:14;;;;;;;29.50;19.10;;;;;;;9.17;54.21;94274.84;5009932;28;20507;-60
2022/01/06 00:05:41;;;;;;;32.33;18.37;;;;;;;8.67;55.55;94311.31;5010669;28;20449;-61
2022/01/06 00:08:08;;;;;;;28.83;19.10;;;;;;;8.89;55.30;94262.25;5009814;28;20441;-61
2022/01/06 00:10:35;;;;;;;31.57;19.47;;;;;;;8.90;55.42;94270.91;5010291;28;20433;-61
2022/01/06 00:13:10;;;;;;;28.07;17.70;;;;;;;8.62;55.54;94273.97;5009580;28;20961;-60
2022/01/06 00:23:38;;;;;;;27.73;16.83;;;;;;;8.88;55.36;94289.44;5009495;28;20948;-62
2022/01/06 00:26:07;;;;;;;23.80;16.10;;;;;;;9.03;54.57;94271.16;5009867;28;20452;-60
2022/01/06 00:28:36;;;;;;;28.40;17.33;;;;;;;8.90;54.81;94292.59;5009550;28;20452;-60
2022/01/06 00:31:04;;;;;;;28.60;16.73;;;;;;;8.87;55.11;94293.09;5010014;28;20455;-61
2022/01/06 00:33:32;;;;;;;26.27;17.03;;;;;;;8.97;55.26;94298.34;5009524;28;20463;-62
2022/01/06 00:35:59;;;;;;;29.37;16.40;;;;;;;8.89;55.17;94291.00;5009368;28;20995;-62
2022/01/06 00:38:26;;;;;;;26.53;16.50;;;;;;;9.11;54.36;94277.69;5009682;28;20522;-60
2022/01/06 00:40:54;;;;;;;28.07;17.17;;;;;;;8.95;54.16;94270.91;5009002;28;20519;-62
2022/01/06 00:43:21;;;;;;;24.50;16.02;;;;;;;8.53;55.43;94294.59;5009530;28;20901;-60
2022/01/06 00:45:48;;;;;;;26.63;16.93;;;;;;;8.52;55.32;94287.78;5009748;28;20273;-60
2022/01/06 00:48:15;;;;;;;24.60;17.27;;;;;;;8.67;55.79;94287.81;5008986;28;20523;-61
2022/01/06 00:50:43;;;;;;;24.48;16.40;;;;;;;8.26;56.72;94312.25;5009234;28;20972;-60
2022/01/06 00:53:11;;;;;;;26.37;16.40;;;;;;;8.47;56.08;94300.81;5009028;28;20340;-60
2022/01/06 00:55:39;;;;;;;26.60;16.93;;;;;;;8.45;55.47;94271.56;5008520;28;20484;-61
2022/01/06 00:58:07;;;;;;;26.15;16.92;;;;;;;8.71;55.47;94303.75;5009280;28;20459;-61
2022/01/06 01:00:39;;;;;;;24.33;16.67;;;;;;;8.61;55.32;94308.97;5009882;28;20748;-61
2022/01/06 01:03:19;;;;;;;30.23;17.10;;;;;;;7.97;57.31;94308.41;5008907;28;20503;-60
2022/01/06 01:05:49;;;;;;;24.53;16.77;;;;;;;8.29;56.20;94296.06;5008474;28;21239;-60
2022/01/06 01:08:17;;;;;;;27.10;17.77;;;;;;;8.50;55.67;94318.59;5009129;28;20448;-61
2022/01/06 01:10:45;;;;;;;24.40;16.47;;;;;;;7.63;58.09;94333.22;5008484;28;20449;-60
2022/01/06 01:13:13;;;;;;;26.00;17.20;;;;;;;7.52;59.02;94305.53;5009225;28;20448;-62
2022/01/06 01:15:46;;;;;;;27.90;19.50;;;;;;;7.86;57.77;94309.41;5009383;28;21034;-60
2022/01/06 01:18:17;;;;;;;30.43;18.03;;;;;;;7.54;58.48;94340.72;5008849;28;20933;-60
2022/01/06 01:20:45;;;;;;;29.65;18.70;;;;;;;7.80;57.77;94311.19;5009238;28;21012;-60
2022/01/06 01:23:13;;;;;;;26.80;18.50;;;;;;;7.99;57.06;94295.91;5008511;28;20212;-61
2022/01/06 01:25:40;;;;;;;25.07;16.90;;;;;;;8.22;56.56;94311.13;5009352;28;20479;-61
2022/01/06 01:28:07;;;;;;;28.15;17.65;;;;;;;8.47;55.96;94324.31;5008925;28;20433;-61
2022/01/06 01:30:41;;;;;;;31.90;20.23;;;;;;;8.40;55.38;94308.09;5008679;28;20212;-60
2022/01/06 01:33:16;;;;;;;45.10;27.00;;;;;;;8.52;55.99;94313.13;5008316;28;20514;-61
2022/01/06 01:35:43;;;;;;;41.83;24.83;;;;;;;8.15;56.01;94302.75;5008871;28;20480;-61
2022/01/06 01:38:10;;;;;;;41.93;26.70;;;;;;;8.12;56.32;94311.88;5008842;28;20451;-61
2022/01/06 01:40:38;;;;;;;47.50;28.45;;;;;;;8.16;56.45;94302.50;5009175;28;20463;-63
2022/01/06 01:43:04;;;;;;;38.50;25.17;;;;;;;7.77;57.19;94316.88;5008143;28;20202;-61
2022/01/06 01:45:33;;;;;;;36.17;22.30;;;;;;;7.94;57.28;94298.47;5008850;28;20201;-60
2022/01/06 01:48:06;;;;;;;44.70;27.73;;;;;;;7.79;56.95;94282.75;5011279;28;20477;-60
2022/01/06 01:50:34;;;;;;;38.83;25.63;;;;;;;7.33;58.61;94297.31;5012499;28;20773;-60
2022/01/06 01:53:01;;;;;;;43.53;26.20;;;;;;;7.25;58.82;94286.53;5011870;28;20255;-61
2022/01/06 01:55:32;;;;;;;44.07;25.93;;;;;;;7.31;59.01;94304.59;5012503;28;20476;-60
2022/01/06 01:58:00;;;;;;;29.80;20.13;;;;;;;7.65;58.39;94285.00;5012524;28;20484;-60
2022/01/06 02:00:29;;;;;;;37.63;23.20;;;;;;;7.92;56.84;94280.47;5012755;28;20212;-60
2022/01/06 02:02:56;;;;;;;42.17;25.35;;;;;;;7.90;56.87;94271.34;5012008;28;20213;-61
2022/01/06 02:05:27;;;;;;;29.23;19.00;;;;;;;7.65;57.94;94302.47;5012555;28;20198;-60
2022/01/06 02:07:56;;;;;;;29.63;19.05;;;;;;;7.83;57.63;94271.56;5012200;28;20244;-61
2022/01/06 02:10:23;;;;;;;34.25;20.83;;;;;;;7.98;57.29;94294.31;5011904;28;20197;-60
2022/01/06 02:12:52;;;;;;;29.30;17.17;;;;;;;7.66;57.56;94291.03;5012117;28;20225;-60
2022/01/06 02:15:19;;;;;;;21.95;13.95;;;;;;;8.02;57.17;94290.16;5012601;28;20255;-59
2022/01/06 02:17:47;;;;;;;24.90;16.03;;;;;;;8.15;56.45;94294.94;5010710;28;20198;-61
2022/01/06 02:20:18;;;;;;;19.50;13.75;;;;;;;7.93;56.65;94307.34;5012771;28;20825;-61
2022/01/06 02:22:45;;;;;;;19.23;12.07;;;;;;;7.86;56.71;94302.38;5011532;28;20206;-60
2022/01/06 02:25:13;;;;;;;22.50;13.48;;;;;;;7.94;56.65;94277.59;5012615;28;20198;-61
2022/01/06 02:27:42;;;;;;;19.02;11.80;;;;;;;8.16;56.64;94296.50;5011715;28;20197;-60
2022/01/06 02:30:10;;;;;;;18.35;11.88;;;;;;;8.28;56.79;94278.03;5012290;28;20198;-60
2022/01/06 02:32:37;;;;;;;16.13;12.10;;;;;;;8.15;55.87;94250.56;5011550;28;20552;-60
2022/01/06 02:35:16;;;;;;;16.67;10.43;;;;;;;8.15;55.93;94321.03;5012243;28;20491;-59
2022/01/06 02:37:43;;;;;;;14.07;9.77;;;;;;;8.21;56.11;94330.47;5011530;28;20635;-60
2022/01/06 02:40:17;;;;;;;16.92;10.38;;;;;;;8.54;54.96;94298.75;5011695;28;20198;-60
2022/01/06 02:42:48;;;;;;;17.67;11.00;;;;;;;8.36;55.22;94322.72;5011476;28;20201;-60
2022/01/06 02:45:16;;;;;;;18.63;10.90;;;;;;;7.98;56.45;94333.44;5011814;28;20213;-59
2022/01/06 02:47:43;;;;;;;17.53;11.13;;;;;;;7.89;56.62;94319.31;5011103;28;20241;-60
2022/01/06 02:50:12;;;;;;;16.85;10.68;;;;;;;7.95;56.30;94315.69;5011659;28;20448;-60
2022/01/06 02:52:39;;;;;;;18.23;11.52;;;;;;;8.31;55.35;94296.59;5010641;28;20208;-60
2022/01/06 02:55:08;;;;;;;19.60;11.80;;;;;;;8.08;55.86;94318.63;5011613;28;20236;-60
2022/01/06 02:57:36;;;;;;;20.87;12.23;;;;;;;7.39;57.54;94311.94;5010857;28;20868;-60
2022/01/06 03:00:07;;;;;;;16.90;11.15;;;;;;;7.72;57.14;94305.66;5011987;28;20441;-60
2022/01/06 03:02:34;;;;;;;18.67;11.55;;;;;;;8.18;55.61;94310.88;5011357;28;20221;-60
2022/01/06 03:05:01;;;;;;;20.70;11.70;;;;;;;8.25;55.78;94331.53;5011536;28;20202;-60
2022/01/06 03:07:29;;;;;;;23.10;15.75;;;;;;;7.44;57.54;94329.44;5011549;28;20568;-59
2022/01/06 03:09:58;;;;;;;20.00;12.13;;;;;;;7.70;56.94;94266.00;5011560;28;20205;-62
2022/01/06 03:12:43;;;;;;;19.63;12.55;;;;;;;7.59;57.20;94316.53;5011419;28;20975;-60
2022/01/06 03:15:17;;;;;;;15.43;10.63;;;;;;;7.53;57.66;94327.94;5011064;28;20222;-60
2022/01/06 03:17:51;;;;;;;18.42;11.75;;;;;;;7.83;56.83;94333.34;5011373;28;20436;-63
2022/01/06 03:20:19;;;;;;;14.90;11.05;;;;;;;8.09;56.28;94311.59;5011638;28;20202;-59
2022/01/06 03:22:46;;;;;;;17.70;11.20;;;;;;;8.17;55.71;94317.09;5010908;28;20206;-60
2022/01/06 03:25:14;;;;;;;16.77;11.82;;;;;;;7.99;55.60;94340.25;5011404;28;21059;-60
2022/01/06 03:27:42;;;;;;;16.70;11.23;;;;;;;7.89;56.39;94319.31;5011532;28;20194;-59
2022/01/06 03:30:13;;;;;;;14.68;10.75;;;;;;;8.04;56.19;94293.31;5011449;28;20982;-60
2022/01/06 03:32:40;;;;;;;16.97;11.13;;;;;;;8.09;56.08;94312.38;5011252;28;20657;-60
2022/01/06 03:35:09;;;;;;;18.42;12.07;;;;;;;7.58;56.81;94335.78;5010787;28;20527;-60
2022/01/06 03:37:36;;;;;;;19.05;12.20;;;;;;;7.73;57.04;94328.09;5010629;28;20232;-59
2022/01/06 03:40:05;;;;;;;17.10;11.60;;;;;;;7.90;56.03;94323.50;5010621;28;20209;-59
2022/01/06 03:42:33;;;;;;;18.20;10.90;;;;;;;7.96;55.84;94319.88;5010436;28;20193;-60
2022/01/06 03:45:02;;;;;;;18.20;12.10;;;;;;;8.26;55.08;94306.22;5010982;28;20198;-60
2022/01/06 03:47:30;;;;;;;17.60;11.80;;;;;;;7.92;55.79;94327.41;5010734;28;20230;-60
2022/01/06 03:49:56;;;;;;;17.77;11.10;;;;;;;7.92;55.92;94308.38;5010653;28;20559;-61
2022/01/06 03:52:23;;;;;;;17.83;11.40;;;;;;;7.86;55.56;94338.09;5010594;28;20445;-61
2022/01/06 03:54:51;;;;;;;16.77;11.38;;;;;;;7.57;56.56;94308.16;5010009;28;20328;-60
2022/01/06 03:57:18;;;;;;;18.55;10.13;;;;;;;7.11;57.17;94336.47;5009716;28;20209;-60
2022/01/06 03:59:45;;;;;;;18.00;11.50;;;;;;;7.39;56.81;94300.75;5010285;28;20242;-60
2022/01/06 04:02:12;;;;;;;17.98;11.75;;;;;;;7.47;57.00;94311.47;5010736;28;20209;-61
2022/01/06 04:04:39;;;;;;;21.20;12.57;;;;;;;7.22;57.68;94362.59;5009988;28;20238;-61
2022/01/06 04:07:06;;;;;;;18.58;11.80;;;;;;;7.28;58.11;94323.31;5010731;28;20198;-61
2022/01/06 04:09:33;;;;;;;17.83;12.73;;;;;;;7.34;58.08;94298.06;5009516;28;20751;-61
2022/01/06 04:12:00;;;;;;;19.38;11.25;;;;;;;6.64;59.66;94339.91;5010382;28;20206;-60
2022/01/06 04:14:27;;;;;;;17.23;11.68;;;;;;;7.40;58.48;94329.16;5009240;28;20205;-62
2022/01/06 04:16:59;;;;;;;22.13;12.57;;;;;;;7.04;59.15;94343.69;5010502;28;20226;-61
2022/01/06 04:19:26;;;;;;;19.75;12.65;;;;;;;7.47;57.85;94324.50;5009545;28;20260;-61
2022/01/06 04:21:53;;;;;;;18.48;12.02;;;;;;;7.04;59.27;94342.91;5010295;28;20202;-60
2022/01/06 04:24:20;;;;;;;18.38;11.18;;;;;;;6.50;61.03;94370.72;5009326;28;20201;-61
2022/01/06 04:26:47;;;;;;;17.60;12.05;;;;;;;7.19;59.43;94358.66;5009813;28;20206;-60
2022/01/06 04:29:14;;;;;;;21.25;13.02;;;;;;;7.29;59.30;94337.13;5009383;28;20209;-60
2022/01/06 04:31:41;;;;;;;18.50;12.70;;;;;;;7.25;59.77;94294.34;5009981;28;20190;-60
2022/01/06 04:34:09;;;;;;;19.83;13.35;;;;;;;7.06;60.37;94374.72;5009213;28;20205;-60
2022/01/06 04:36:36;;;;;;;18.38;12.18;;;;;;;7.45;59.64;94354.47;5010118;28;20241;-60
2022/01/06 04:39:03;;;;;;;19.67;12.45;;;;;;;7.70;58.92;94326.00;5009495;28;20197;-63
2022/01/06 04:41:30;;;;;;;18.17;12.40;;;;;;;7.51;59.28;94382.94;5010009;28;20205;-61
2022/01/06 04:43:57;;;;;;;19.15;12.45;;;;;;;7.22;59.97;94368.63;5009428;28;20213;-63
2022/01/06 04:46:24;;;;;;;21.83;13.20;;;;;;;8.00;57.62;94323.56;5008475;28;20232;-61
2022/01/06 04:48:52;;;;;;;18.40;11.93;;;;;;;8.15;56.94;94350.53;5008792;28;20669;-60
2022/01/06 04:51:19;;;;;;;19.30;12.10;;;;;;;7.66;59.08;94390.91;5008390;28;20568;-60
2022/01/06 04:53:47;;;;;;;17.13;11.35;;;;;;;8.02;57.32;94343.13;5008605;28;20198;-60
2022/01/06 04:56:14;;;;;;;20.20;13.38;;;;;;;7.90;57.86;94354.81;5008993;28;20225;-60
2022/01/06 04:58:41;;;;;;;21.38;12.02;;;;;;;7.58;58.92;94382.72;5007949;28;20221;-61
2022/01/06 05:01:08;;;;;;;22.42;13.07;;;;;;;7.73;58.34;94380.25;5009967;28;20198;-61
2022/01/06 05:03:35;;;;;;;22.10;13.05;;;;;;;8.01;57.82;94348.63;5008563;28;20704;-60
2022/01/06 05:06:01;;;;;;;19.70;12.52;;;;;;;7.85;57.87;94370.41;5009849;28;20213;-61
2022/01/06 05:08:29;;;;;;;21.58;12.68;;;;;;;7.54;59.04;94403.28;5008976;28;20198;-61
2022/01/06 05:10:56;;;;;;;19.67;13.68;;;;;;;7.82;57.95;94303.09;5009291;28;20193;-61
2022/01/06 05:13:23;;;;;;;19.15;12.55;;;;;;;7.61;58.11;94346.50;5008120;28;20205;-61
2022/01/06 05:15:50;;;;;;;19.92;13.00;;;;;;;7.21;59.75;94381.91;5009804;28;20764;-61
2022/01/06 05:18:17;;;;;;;18.63;11.77;;;;;;;6.95;60.54;94405.06;5008754;28;20201;-61
2022/01/06 05:20:44;;;;;;;20.83;12.68;;;;;;;7.44;59.24;94335.44;5008840;28;20182;-61
2022/01/06 05:23:12;;;;;;;19.60;12.38;;;;;;;7.96;58.23;94374.66;5008360;28;20247;-62
2022/01/06 05:25:39;;;;;;;18.45;11.65;;;;;;;7.62;58.50;94374.16;5009766;28;20328;-62
2022/01/06 05:28:06;;;;;;;20.67;12.48;;;;;;;8.09;58.20;94343.69;5009018;28;20202;-60
2022/01/06 05:30:33;;;;;;;18.75;12.05;;;;;;;8.29;57.11;94353.47;5009550;28;20202;-72
2022/01/06 05:33:00;;;;;;;17.02;11.80;;;;;;;8.52;56.09;94384.38;5008481;28;20198;-60
2022/01/06 05:35:27;;;;;;;19.77;12.25;;;;;;;7.85;57.80;94388.66;5009422;28;20205;-61
2022/01/06 05:37:54;;;;;;;27.13;12.23;;;;;;;7.70;57.69;94367.72;5008613;28;20277;-62
2022/01/06 05:40:21;;;;;;;18.55;12.25;;;;;;;7.89;57.22;94384.53;5008733;28;20213;-61
2022/01/06 05:42:49;;;;;;;17.20;12.43;;;;;;;8.21;56.62;94356.56;5008550;28;20263;-61
2022/01/06 05:45:17;;;;;;;22.02;12.85;;;;;;;8.29;56.22;94370.94;5009386;28;20205;-60
2022/01/06 05:47:44;;;;;;;20.10;12.50;;;;;;;7.88;57.27;94404.59;5008029;28;20787;-61
2022/01/06 05:50:11;;;;;;;29.08;21.20;;;;;;;7.52;60.24;94376.69;5008306;28;20665;-61
2022/01/06 05:52:38;;;;;;;135.18;89.90;;;;;;;8.01;58.23;94385.13;5007932;28;20205;-60
2022/01/06 05:55:05;;;;;;;33.03;18.60;;;;;;;7.57;58.52;94388.97;5008719;28;20645;-60
2022/01/06 05:57:32;;;;;;;24.65;13.70;;;;;;;8.06;56.87;94359.84;5008303;28;20209;-61
2022/01/06 05:59:59;;;;;;;21.00;12.35;;;;;;;8.02;57.48;94386.69;5008949;28;20260;-62
2022/01/06 06:02:26;;;;;;;18.80;12.68;;;;;;;7.89;57.25;94379.31;5008967;28;20666;-60
2022/01/06 06:04:53;;;;;;;20.23;13.43;;;;;;;7.95;56.86;94352.22;5008298;28;20716;-66
2022/01/06 06:07:20;;;;;;;19.08;11.10;;;;;;;7.21;58.28;94403.50;5008936;28;20268;-62
2022/01/06 06:09:47;;;;;;;71.15;47.40;;;;;;;7.21;59.81;94407.94;5008714;28;20804;-59
2022/01/06 06:12:14;;;;;;;107.55;73.35;;;;;;;7.69;58.54;94369.53;5009204;28;20197;-59
2022/01/06 06:14:41;;;;;;;29.38;15.38;;;;;;;7.61;58.04;94349.13;5007234;28;20205;-61
2022/01/06 06:17:08;;;;;;;25.15;14.20;;;;;;;7.66;58.49;94390.09;5009215;28;20230;-63
2022/01/06 06:19:35;;;;;;;23.30;13.95;;;;;;;7.47;58.91;94386.28;5008859;28;20194;-60
2022/01/06 06:22:03;;;;;;;24.55;15.13;;;;;;;7.81;58.30;94372.72;5008954;28;20908;-60
2022/01/06 06:24:30;;;;;;;25.55;14.65;;;;;;;7.69;59.02;94400.81;5008169;28;20252;-60
2022/01/06 06:26:57;;;;;;;24.42;14.10;;;;;;;7.72;58.76;94399.53;5008383;28;20210;-60
2022/01/06 06:29:24;;;;;;;23.38;14.30;;;;;;;7.68;59.01;94416.72;5007686;28;20206;-61
2022/01/06 06:31:50;;;;;;;24.83;15.00;;;;;;;7.79;58.39;94392.28;5008741;28;20601;-63
2022/01/06 06:34:18;;;;;;;27.47;15.47;;;;;;;7.70;58.37;94362.50;5011295;28;20301;-60
2022/01/06 06:36:44;;;;;;;27.17;16.73;;;;;;;7.72;58.87;94430.84;5012238;28;20582;-61
2022/01/06 06:39:12;;;;;;;26.08;13.30;;;;;;;6.88;61.22;94403.66;5012285;28;20186;-59
2022/01/06 06:41:38;;;;;;;24.92;14.82;;;;;;;7.63;58.33;94349.66;5012735;28;20214;-60
2022/01/06 06:44:05;;;;;;;24.40;14.15;;;;;;;7.57;59.10;94407.22;5011777;28;20206;-59
2022/01/06 06:46:32;;;;;;;23.35;14.00;;;;;;;8.09;57.86;94395.09;5012584;28;20225;-62
2022/01/06 06:48:59;;;;;;;27.80;14.45;;;;;;;8.02;58.15;94397.13;5011498;28;20250;-59
2022/01/06 06:51:26;;;;;;;26.95;14.85;;;;;;;8.19;59.21;94405.59;5012200;28;20210;-58
2022/01/06 06:53:53;;;;;;;24.75;15.73;;;;;;;7.73;58.87;94417.53;5011396;28;20217;-59
2022/01/06 06:56:20;;;;;;;28.92;16.42;;;;;;;7.42;59.74;94415.72;5012140;28;20226;-59
2022/01/06 06:58:47;;;;;;;27.10;17.58;;;;;;;7.94;58.73;94405.41;5011235;28;20210;-60
2022/01/06 07:01:14;;;;;;;33.13;16.58;;;;;;;7.65;58.56;94411.97;5012097;28;20676;-59
2022/01/06 07:03:41;;;;;;;27.17;17.10;;;;;;;7.69;58.99;94431.31;5011247;28;20202;-57
2022/01/06 07:06:08;;;;;;;23.88;15.73;;;;;;;7.53;59.61;94409.56;5012402;28;20205;-59
2022/01/06 07:08:35;;;;;;;26.70;16.50;;;;;;;7.48;60.15;94398.28;5011172;28;20964;-62
2022/01/06 07:11:02;;;;;;;23.13;15.30;;;;;;;7.61;59.22;94418.75;5011900;28;20268;-60
2022/01/06 07:13:29;;;;;;;26.77;15.73;;;;;;;7.43;59.57;94421.69;5011182;28;20597;-60
2022/01/06 07:15:56;;;;;;;28.85;16.00;;;;;;;7.22;60.53;94447.53;5011314;28;20210;-60
2022/01/06 07:18:23;;;;;;;24.33;15.90;;;;;;;7.72;59.52;94420.41;5011023;28;20198;-61
2022/01/06 07:20:50;;;;;;;30.05;18.00;;;;;;;8.09;58.98;94421.19;5011205;28;20193;-66
2022/01/06 07:23:16;;;;;;;25.10;16.15;;;;;;;8.15;58.25;94446.28;5011086;28;20206;-61
2022/01/06 07:25:43;;;;;;;28.92;17.27;;;;;;;7.96;59.50;94432.03;5011231;28;20256;-62
2022/01/06 07:28:10;;;;;;;28.10;16.90;;;;;;;8.60;57.44;94443.97;5011248;28;20252;-62
2022/01/06 07:30:37;;;;;;;26.60;16.17;;;;;;;8.86;57.20;94437.81;5011074;28;20292;-60
2022/01/06 07:33:04;;;;;;;28.80;15.70;;;;;;;8.54;56.68;94437.13;5010776;28;20766;-59
2022/01/06 07:35:33;;;;;;;30.90;17.00;;;;;;;9.15;56.20;94425.09;5010924;28;20467;-61
2022/01/06 07:37:59;;;;;;;28.77;16.80;;;;;;;9.23;55.67;94453.38;5010894;28;20437;-60
2022/01/06 07:40:26;;;;;;;28.60;16.03;;;;;;;9.31;56.35;94449.44;5011206;28;20899;-59
2022/01/06 07:42:53;;;;;;;23.97;15.93;;;;;;;9.36;55.26;94403.19;5011049;28;20503;-60
2022/01/06 07:45:20;;;;;;;30.80;17.47;;;;;;;9.50;55.29;94429.63;5009887;28;20982;-60
2022/01/06 07:50:46;;;;;;;29.50;17.77;;;;;;;9.29;55.61;94464.63;5006620;28;20449;-59
2022/01/06 07:53:13;;;;;;;26.10;17.23;;;;;;;9.38;54.84;94429.09;5010867;28;20437;-59
2022/01/06 07:55:39;;;;;;;28.73;18.33;;;;;;;9.38;55.15;94452.63;5010714;28;20527;-59
2022/01/06 07:58:06;;;;;;;28.30;16.53;;;;;;;9.31;55.62;94459.91;5010203;28;20445;-60
2022/01/06 08:00:34;;;;;;;29.43;17.50;;;;;;;9.39;55.05;94462.03;5011480;28;20445;-61
2022/01/06 08:03:02;;;;;;;35.40;16.73;;;;;;;9.46;55.55;94459.94;5011319;28;20429;-60
2022/01/06 08:05:29;;;;;;;28.80;17.30;;;;;;;9.76;55.46;94436.47;5011995;28;20520;-59
2022/01/06 08:07:56;;;;;;;31.63;18.77;;;;;;;9.89;54.95;94464.75;5010622;28;20448;-62
2022/01/06 08:10:23;;;;;;;31.13;18.53;;;;;;;10.00;53.86;94474.13;5010862;28;20947;-60
2022/01/06 08:12:50;;;;;;;33.23;19.30;;;;;;;10.06;54.59;94452.16;5010417;28;21212;-61
2022/01/06 08:15:17;;;;;;;27.53;17.43;;;;;;;9.60;54.03;94468.91;5010075;28;20453;-59
2022/01/06 08:17:44;;;;;;;28.97;16.53;;;;;;;10.00;53.98;94467.06;5010379;28;20861;-58
2022/01/06 08:20:15;;;;;;;27.73;16.60;;;;;;;10.30;53.77;94458.47;5010309;28;20468;-60
2022/01/06 08:22:42;;;;;;;26.70;17.50;;;;;;;10.52;52.83;94466.81;5010145;28;20503;-59
2022/01/06 08:25:10;;;;;;;24.50;16.23;;;;;;;10.57;51.81;94482.53;5009907;28;20452;-60
2022/01/06 08:27:37;;;;;;;30.57;16.37;;;;;;;10.94;51.14;94464.63;5009916;28;20445;-62
2022/01/06 08:30:06;;;;;;;28.27;16.30;;;;;;;11.36;50.86;94450.25;5010564;28;20449;-60
2022/01/06 08:32:34;;;;;;;24.20;16.03;;;;;;;11.22;49.91;94477.06;5009233;28;20444;-61
2022/01/06 08:35:02;;;;;;;28.83;18.50;;;;;;;11.38;49.68;94463.91;5010016;28;20473;-61
2022/01/06 08:37:30;;;;;;;32.80;21.57;;;;;;;11.73;49.32;94440.13;5010425;28;20491;-60
2022/01/06 08:39:56;;;;;;;29.77;20.30;;;;;;;11.83;49.38;94450.53;5010358;28;20828;-60
2022/01/06 08:42:23;;;;;;;33.33;22.77;;;;;;;12.13;48.46;94466.06;5010075;28;20987;-61
2022/01/06 08:44:50;;;;;;;35.03;23.40;;;;;;;12.29;47.30;94451.75;5009370;28;20536;-61
2022/01/06 08:47:17;;;;;;;34.13;23.30;;;;;;;12.74;46.92;94445.25;5010244;28;21013;-60
2022/01/06 08:49:44;;;;;;;29.63;20.80;;;;;;;12.50;45.73;94455.75;5009286;28;20437;-61
2022/01/06 08:52:11;;;;;;;31.57;22.00;;;;;;;12.15;46.69;94469.22;5009980;28;20554;-60
2022/01/06 08:54:38;;;;;;;32.23;20.80;;;;;;;12.64;46.31;94453.25;5009565;28;20437;-60
2022/01/06 08:57:05;;;;;;;34.07;21.53;;;;;;;13.34;45.25;94428.03;5009485;28;20480;-61
2022/01/06 08:59:32;;;;;;;30.07;18.00;;;;;;;13.79;44.91;94425.56;5009679;28;20465;-60
2022/01/06 09:01:59;;;;;;;26.23;17.47;;;;;;;13.89;43.01;94461.47;5010084;28;20436;-60
2022/01/06 09:04:26;;;;;;;27.20;19.00;;;;;;;13.57;43.40;94462.19;5009531;28;20433;-59
2022/01/06 09:06:53;;;;;;;32.40;22.03;;;;;;;14.39;43.82;94429.09;5010378;28;20456;-60
2022/01/06 09:09:21;;;;;;;25.10;18.53;;;;;;;14.71;42.25;94421.13;5009565;28;20507;-61
2022/01/06 09:11:48;;;;;;;28.03;17.83;;;;;;;14.95;41.88;94427.00;5009398;28;20536;-59
2022/01/06 09:14:15;;;;;;;31.17;20.07;;;;;;;14.63;41.62;94445.53;5009146;28;20839;-61
2022/01/06 09:16:43;;;;;;;30.47;20.17;;;;;;;14.90;42.14;94421.81;5009586;28;20603;-60
2022/01/06 09:19:10;;;;;;;29.90;20.13;;;;;;;15.43;41.28;94431.88;5009161;28;20444;-62
2022/01/06 09:21:37;;;;;;;31.27;21.47;;;;;;;15.76;40.92;94430.63;5009167;28;20992;-61
2022/01/06 09:24:06;;;;;;;32.93;21.30;;;;;;;15.71;41.29;94420.94;5009072;28;20507;-61
2022/01/06 09:26:34;;;;;;;33.03;21.77;;;;;;;15.79;40.39;94408.88;5009076;28;20455;-61
2022/01/06 09:29:07;;;;;;;34.13;22.03;;;;;;;15.70;40.02;94422.03;5008982;28;20452;-60
2022/01/06 09:31:36;;;;;;;34.97;23.17;;;;;;;15.20;40.80;94418.56;5009560;28;20483;-60
2022/01/06 09:34:09;;;;;;;28.73;20.43;;;;;;;15.40;41.12;94411.31;5008632;28;20503;-61
2022/01/06 09:36:38;;;;;;;31.70;19.97;;;;;;;15.81;40.86;94386.38;5008835;28;20480;-61
2022/01/06 09:39:07;;;;;;;31.50;20.50;;;;;;;16.39;39.29;94396.84;5008683;28;21025;-60
2022/01/06 09:41:35;;;;;;;29.97;19.37;;;;;;;16.58;38.35;94394.03;5009084;28;20433;-60
2022/01/06 09:44:03;;;;;;;31.50;20.77;;;;;;;16.82;38.38;94381.97;5009038;28;20445;-60
2022/01/06 09:46:50;;;;;;;28.47;18.50;;;;;;;16.76;38.32;94400.97;5008825;28;20436;-60
2022/01/06 09:49:18;;;;;;;30.33;19.30;;;;;;;16.70;38.01;94408.25;5008789;28;20460;-61
2022/01/06 09:51:46;;;;;;;31.97;20.07;;;;;;;16.64;38.33;94398.88;5007945;28;20444;-61
2022/01/06 09:54:13;;;;;;;28.80;18.70;;;;;;;16.45;38.51;94382.44;5009629;28;20451;-61
2022/01/06 09:56:40;;;;;;;29.80;18.90;;;;;;;16.14;39.35;94373.72;5009334;28;20543;-61
2022/01/06 09:59:07;;;;;;;30.77;18.43;;;;;;;16.02;39.50;94391.97;5008655;28;20483;-60
2022/01/06 10:01:35;;;;;;;34.03;20.23;;;;;;;16.00;39.60;94378.28;5009174;28;20491;-60
2022/01/06 10:04:02;;;;;;;30.87;21.77;;;;;;;16.12;39.86;94386.44;5008631;28;20452;-60
2022/01/06 10:06:30;;;;;;;32.47;21.80;;;;;;;15.73;39.64;94386.34;5008610;28;20522;-60
2022/01/06 10:08:59;;;;;;;34.00;22.07;;;;;;;16.39;39.61;94378.34;5011139;28;20448;-59
2022/01/06 10:11:29;;;;;;;38.53;21.60;;;;;;;16.46;40.39;94383.97;5012830;28;20451;-61
2022/01/06 10:14:11;;;;;;;32.60;21.57;;;;;;;16.33;39.95;94386.72;5012330;28;20444;-60
2022/01/06 10:16:44;;;;;;;33.57;21.80;;;;;;;16.50;39.29;94386.81;5012133;28;20496;-61
2022/01/06 10:19:12;;;;;;;40.03;22.73;;;;;;;16.71;38.47;94377.28;5012527;28;20935;-60
2022/01/06 10:21:49;;;;;;;37.53;22.67;;;;;;;16.81;39.00;94372.50;5012627;28;20429;-60
2022/01/06 10:24:22;;;;;;;33.50;22.53;;;;;;;17.04;38.30;94368.66;5012149;28;20467;-60
2022/01/06 10:27:04;;;;;;;37.40;21.17;;;;;;;16.85;37.98;94357.56;5012269;28;20528;-61
2022/01/06 10:29:41;;;;;;;39.37;22.80;;;;;;;16.73;38.57;94381.16;5012220;28;20507;-61
2022/01/06 10:32:09;;;;;;;34.27;21.53;;;;;;;16.64;38.91;94372.44;5011425;28;20456;-61
2022/01/06 10:34:40;;;;;;;46.70;28.13;;;;;;;16.54;39.85;94375.34;5011792;28;20546;-60
2022/01/06 10:37:21;;;;;;;51.20;26.83;;;;;;;16.46;40.38;94375.28;5012068;28;20485;-61
2022/01/06 10:39:52;;;;;;;30.70;19.50;;;;;;;16.64;40.43;94367.13;5011699;28;21285;-61
2022/01/06 10:42:28;;;;;;;32.17;18.43;;;;;;;16.59;39.32;94361.97;5012139;28;20536;-63
2022/01/06 10:44:59;;;;;;;25.13;14.70;;;;;;;16.65;39.38;94368.72;5012237;28;20432;-60
2022/01/06 10:47:35;;;;;;;26.57;16.30;;;;;;;16.62;38.99;94347.38;5011944;28;20480;-59
2022/01/06 10:50:27;;;;;;;24.37;13.90;;;;;;;16.93;40.20;94356.03;5012220;28;20444;-61
2022/01/06 10:53:17;;;;;;;24.77;13.77;;;;;;;17.06;40.21;94347.97;5011159;28;20428;-59
2022/01/06 10:55:46;;;;;;;23.77;14.63;;;;;;;17.00;40.00;94359.81;5011401;28;20971;-60
2022/01/06 10:58:22;;;;;;;30.33;16.37;;;;;;;17.12;38.36;94357.34;5011071;28;20579;-61
2022/01/06 11:00:55;;;;;;;30.30;15.67;;;;;;;17.26;38.00;94353.78;5011473;28;21019;-62
2022/01/06 11:03:25;;;;;;;23.70;15.30;;;;;;;17.45;38.68;94344.44;5011464;28;20924;-60
2022/01/06 11:05:54;;;;;;;24.37;15.50;;;;;;;17.18;39.25;94348.16;5011761;28;20486;-62
2022/01/06 11:08:25;;;;;;;31.57;14.87;;;;;;;17.09;39.47;94344.72;5010791;28;20451;-60
2022/01/06 11:13:36;;;;;;;27.60;14.57;;;;;;;17.44;39.01;94339.47;5010761;28;20443;-60
2022/01/06 11:16:04;;;;;;;20.00;11.53;;;;;;;17.60;38.72;94330.00;5011135;28;20433;-60
2022/01/06 11:18:31;;;;;;;18.97;11.60;;;;;;;17.59;37.88;94321.25;5010348;28;20540;-60
2022/01/06 11:21:07;;;;;;;20.40;12.03;;;;;;;17.59;37.02;94339.03;5011562;28;20452;-61
2022/01/06 11:23:36;;;;;;;31.77;15.33;;;;;;;17.65;37.78;94343.06;5010962;28;20459;-60
2022/01/06 11:26:11;;;;;;;26.97;15.80;;;;;;;17.79;38.50;94328.56;5010995;28;20448;-60
2022/01/06 11:28:39;;;;;;;24.53;17.23;;;;;;;17.67;38.96;94330.28;5010167;28;20483;-61
2022/01/06 11:31:25;;;;;;;21.07;15.27;;;;;;;17.51;39.26;94315.97;5009482;28;20845;-60
2022/01/06 11:33:54;;;;;;;25.13;13.37;;;;;;;17.80;38.50;94332.00;5010477;28;20480;-59
2022/01/06 11:36:31;;;;;;;20.37;14.53;;;;;;;17.78;36.99;94331.53;5011306;28;20453;-61
2022/01/06 11:39:06;;;;;;;26.50;14.87;;;;;;;18.09;37.94;94326.81;5010808;28;20444;-60
2022/01/06 11:41:39;;;;;;;22.07;15.30;;;;;;;17.87;37.80;94329.66;5011435;28;20451;-61